createdAt,value
2023-02-24T00:00:40.786Z,0.00
2023-02-24T00:01:40.804Z,0.00
2023-02-24T00:02:40.888Z,0.00
2023-02-24T00:03:40.929Z,0.00
2023-02-24T00:04:40.931Z,0.00
2023-02-24T00:05:40.997Z,0.00
2023-02-24T00:06:41.044Z,0.00
2023-02-24T00:07:41.090Z,0.00
2023-02-24T00:08:41.105Z,0.00
2023-02-24T00:09:41.134Z,0.00
2023-02-24T00:10:41.210Z,0.00
2023-02-24T00:11:41.254Z,0.00
2023-02-24T00:12:41.306Z,0.00
2023-02-24T00:13:41.304Z,0.00
2023-02-24T00:14:41.364Z,0.00
2023-02-24T00:15:41.384Z,0.00
2023-02-24T00:16:41.555Z,0.00
2023-02-24T00:17:41.506Z,0.00
2023-02-24T00:18:41.520Z,0.00
2023-02-24T00:19:41.555Z,0.00
2023-02-24T00:20:41.604Z,0.00
2023-02-24T00:21:41.643Z,0.00
2023-02-24T00:22:41.725Z,0.00
2023-02-24T00:23:42.559Z,0.00
2023-02-24T00:24:41.798Z,0.00
2023-02-24T00:25:41.844Z,0.00
2023-02-24T00:26:41.854Z,0.00
2023-02-24T00:27:41.894Z,0.00
2023-02-24T00:28:41.951Z,0.00
2023-02-24T00:29:42.237Z,0.00
2023-02-24T00:30:42.117Z,0.00
2023-02-24T00:31:42.292Z,0.00
2023-02-24T00:32:42.230Z,0.00
2023-02-24T00:33:42.159Z,0.00
2023-02-24T00:34:42.212Z,0.00
2023-02-24T00:35:42.278Z,0.00
2023-02-24T00:36:42.294Z,0.00
2023-02-24T00:37:42.330Z,0.00
2023-02-24T00:38:42.368Z,0.00
2023-02-24T00:39:42.424Z,0.00
2023-02-24T00:40:42.480Z,0.00
2023-02-24T00:41:42.512Z,0.00
2023-02-24T00:42:42.546Z,0.00
2023-02-24T00:43:42.602Z,0.00
2023-02-24T00:44:42.630Z,0.00
2023-02-24T00:45:42.713Z,0.00
2023-02-24T00:46:42.720Z,0.00
2023-02-24T00:47:42.769Z,0.00
2023-02-24T00:48:42.804Z,0.00
2023-02-24T00:49:43.220Z,0.00
2023-02-24T00:50:42.916Z,0.00
2023-02-24T00:51:42.928Z,0.00
2023-02-24T00:52:42.967Z,0.00
2023-02-24T00:53:43.028Z,0.00
2023-02-24T00:54:43.056Z,0.00
2023-02-24T00:55:43.125Z,0.00
2023-02-24T01:15:07.537Z,0.00
2023-02-24T01:16:06.987Z,0.00
2023-02-24T01:17:06.969Z,0.00
2023-02-24T01:18:07.011Z,0.00
2023-02-24T01:19:07.062Z,0.00
2023-02-24T01:20:07.131Z,0.00
2023-02-24T01:21:07.162Z,0.00
2023-02-24T01:22:07.173Z,0.00
2023-02-24T01:23:07.289Z,0.00
2023-02-24T01:24:07.252Z,0.00
2023-02-24T01:25:07.343Z,0.00
2023-02-24T01:26:07.342Z,0.00
2023-02-24T01:27:07.417Z,0.00
2023-02-24T01:28:07.449Z,0.00
2023-02-24T01:29:07.476Z,0.00
2023-02-24T01:30:07.504Z,0.00
2023-02-24T01:31:07.656Z,0.00
2023-02-24T01:32:07.820Z,0.00
2023-02-24T01:33:07.893Z,0.00
2023-02-24T01:34:07.673Z,0.00
2023-02-24T01:35:07.728Z,0.00
2023-02-24T01:36:07.760Z,0.00
2023-02-24T01:37:07.838Z,0.00
2023-02-24T01:38:07.895Z,0.00
2023-02-24T01:39:07.896Z,0.00
2023-02-24T01:40:07.930Z,0.00
2023-02-24T01:41:07.981Z,0.00
2023-02-24T01:42:08.012Z,0.00
2023-02-24T01:43:08.139Z,0.00
2023-02-24T01:44:08.098Z,0.00
2023-02-24T01:45:08.140Z,0.00
2023-02-24T01:46:08.220Z,0.00
2023-02-24T01:47:08.222Z,0.00
2023-02-24T01:48:08.301Z,0.00
2023-02-24T01:49:08.323Z,0.00
2023-02-24T01:50:08.358Z,0.00
2023-02-24T01:51:08.407Z,0.00
2023-02-24T01:52:08.447Z,0.00
2023-02-24T01:53:08.517Z,0.00
2023-02-24T01:54:08.528Z,0.00
2023-02-24T01:55:08.562Z,0.00
2023-02-24T01:56:08.612Z,0.00
2023-02-24T01:57:08.644Z,0.00
2023-02-24T01:58:08.732Z,0.00
2023-02-24T01:59:08.730Z,0.00
2023-02-24T02:00:08.785Z,0.00
2023-02-24T02:01:08.802Z,0.00
2023-02-24T02:02:08.936Z,0.00
2023-02-24T02:03:08.915Z,0.00
2023-02-24T02:04:08.949Z,0.00
2023-02-24T02:05:09.013Z,0.00
2023-02-24T02:06:09.042Z,0.00
2023-02-24T02:07:10.131Z,0.00
2023-02-24T02:08:09.107Z,0.00
2023-02-24T02:09:09.141Z,0.00
2023-02-24T02:10:09.225Z,0.00
2023-02-24T02:11:09.231Z,0.00
2023-02-24T02:12:09.274Z,0.00
2023-02-24T02:13:09.306Z,0.00
2023-02-24T02:14:09.354Z,0.00
2023-02-24T02:15:09.439Z,0.00
2023-02-24T02:16:09.504Z,0.00
2023-02-24T02:17:09.479Z,0.00
2023-02-24T02:18:09.523Z,0.00
2023-02-24T02:19:09.564Z,0.00
2023-02-24T02:20:09.595Z,0.00
2023-02-24T02:21:09.672Z,0.00
2023-02-24T02:22:09.708Z,0.00
2023-02-24T02:23:09.732Z,0.00
2023-02-24T02:24:09.764Z,0.00
2023-02-24T02:25:09.816Z,0.00
2023-02-24T02:26:09.842Z,0.00
2023-02-24T02:27:09.921Z,0.00
2023-02-24T02:28:09.931Z,0.00
2023-02-24T02:29:10.013Z,0.00
2023-02-24T02:30:10.011Z,0.00
2023-02-24T02:31:10.215Z,0.00
2023-02-24T02:32:10.157Z,0.00
2023-02-24T02:33:10.147Z,0.00
2023-02-24T02:34:10.209Z,0.00
2023-02-24T02:35:10.230Z,0.00
2023-02-24T02:36:10.263Z,0.00
2023-02-24T02:37:10.308Z,0.00
2023-02-24T02:38:10.346Z,0.00
2023-02-24T02:39:10.439Z,0.00
2023-02-24T02:40:10.475Z,0.00
2023-02-24T02:41:10.483Z,0.00
2023-02-24T02:42:10.553Z,0.00
2023-02-24T02:43:10.578Z,0.00
2023-02-24T02:44:10.609Z,0.00
2023-02-24T02:45:10.644Z,0.00
2023-02-24T02:46:10.750Z,0.00
2023-02-24T02:47:10.724Z,0.00
2023-02-24T02:48:10.776Z,0.00
2023-02-24T02:49:10.841Z,0.00
2023-02-24T02:50:10.861Z,0.00
2023-02-24T02:51:10.886Z,0.00
2023-02-24T02:52:10.939Z,0.00
2023-02-24T02:53:11.533Z,0.00
2023-02-24T02:54:11.049Z,0.00
2023-02-24T02:55:11.065Z,0.00
2023-02-24T02:56:11.108Z,0.00
2023-02-24T02:57:11.167Z,0.00
2023-02-24T02:58:11.217Z,0.00
2023-02-24T02:59:11.226Z,0.00
2023-02-24T03:00:11.294Z,0.00
2023-02-24T03:01:11.359Z,0.00
2023-02-24T03:02:11.417Z,0.00
2023-02-24T03:03:11.392Z,0.00
2023-02-24T03:04:11.449Z,0.00
2023-02-24T03:05:11.474Z,0.00
2023-02-24T03:06:11.527Z,0.00
2023-02-24T03:07:11.584Z,0.00
2023-02-24T03:08:11.663Z,0.00
2023-02-24T03:09:11.640Z,0.00
2023-02-24T03:10:11.726Z,0.00
2023-02-24T03:11:11.728Z,0.00
2023-02-24T03:12:11.811Z,0.00
2023-02-24T03:13:11.809Z,0.00
2023-02-24T03:14:11.864Z,0.00
2023-02-24T03:15:11.904Z,0.00
2023-02-24T03:16:11.976Z,0.00
2023-02-24T03:17:12.015Z,0.00
2023-02-24T03:18:12.028Z,0.00
2023-02-24T03:19:12.075Z,0.00
2023-02-24T03:20:12.135Z,0.00
2023-02-24T03:21:12.156Z,0.00
2023-02-24T03:22:12.231Z,0.00
2023-02-24T03:23:12.247Z,0.00
2023-02-24T03:24:12.284Z,0.00
2023-02-24T03:25:12.371Z,0.00
2023-02-24T03:26:12.405Z,0.00
2023-02-24T03:27:12.422Z,0.00
2023-02-24T03:28:12.456Z,0.00
2023-02-24T03:29:12.499Z,0.00
2023-02-24T03:30:12.562Z,0.00
2023-02-24T03:31:12.631Z,0.00
2023-02-24T03:32:12.753Z,0.00
2023-02-24T03:33:12.667Z,0.00
2023-02-24T03:34:12.735Z,0.00
2023-02-24T03:35:12.752Z,0.00
2023-02-24T03:36:12.789Z,0.00
2023-02-24T03:37:12.845Z,0.00
2023-02-24T03:38:12.906Z,0.00
2023-02-24T03:39:12.924Z,0.00
2023-02-24T03:40:12.967Z,0.00
2023-02-24T03:41:13.044Z,0.00
2023-02-24T03:42:13.082Z,0.00
2023-02-24T03:43:14.888Z,0.00
2023-02-24T03:44:13.125Z,0.00
2023-02-24T03:45:13.174Z,0.00
2023-02-24T03:46:13.312Z,0.00
2023-02-24T03:47:13.289Z,0.00
2023-02-24T03:48:13.314Z,0.00
2023-02-24T03:49:13.344Z,0.00
2023-02-24T03:50:13.392Z,0.00
2023-02-24T03:51:13.421Z,0.00
2023-02-24T03:52:13.507Z,0.00
2023-02-24T03:53:14.038Z,0.00
2023-02-24T03:54:13.564Z,0.00
2023-02-24T03:55:13.598Z,0.00
2023-02-24T03:56:13.645Z,0.00
2023-02-24T03:57:13.704Z,0.00
2023-02-24T03:58:13.725Z,0.00
2023-02-24T03:59:13.770Z,0.00
2023-02-24T04:00:13.844Z,0.00
2023-02-24T04:01:13.862Z,0.00
2023-02-24T04:02:13.956Z,0.00
2023-02-24T04:03:13.935Z,0.00
2023-02-24T04:04:13.982Z,0.00
2023-02-24T04:05:14.044Z,0.00
2023-02-24T04:06:14.088Z,0.00
2023-02-24T04:07:14.106Z,0.00
2023-02-24T04:08:14.178Z,0.00
2023-02-24T04:09:14.187Z,0.00
2023-02-24T04:10:14.242Z,0.00
2023-02-24T04:11:14.305Z,0.00
2023-02-24T04:12:14.446Z,0.00
2023-02-24T04:13:14.361Z,0.00
2023-02-24T04:14:14.416Z,0.00
2023-02-24T04:15:14.454Z,0.00
2023-02-24T04:16:14.558Z,0.00
2023-02-24T04:17:14.590Z,0.00
2023-02-24T04:18:14.574Z,0.00
2023-02-24T04:19:14.628Z,0.00
2023-02-24T04:20:14.659Z,0.00
2023-02-24T04:21:14.704Z,0.00
2023-02-24T04:22:14.772Z,0.00
2023-02-24T04:23:14.878Z,0.00
2023-02-24T04:24:14.831Z,0.00
2023-02-24T04:25:14.881Z,0.00
2023-02-24T04:26:14.918Z,0.00
2023-02-24T04:27:14.959Z,0.00
2023-02-24T04:28:15.022Z,0.00
2023-02-24T04:29:15.048Z,0.00
2023-02-24T04:30:15.093Z,0.00
2023-02-24T04:31:15.319Z,0.00
2023-02-24T04:32:15.328Z,0.00
2023-02-24T04:33:15.282Z,0.00
2023-02-24T04:34:15.319Z,0.00
2023-02-24T04:35:15.313Z,0.00
2023-02-24T04:36:15.338Z,0.00
2023-02-24T04:37:15.423Z,0.00
2023-02-24T04:38:15.430Z,0.00
2023-02-24T04:39:15.476Z,0.00
2023-02-24T04:40:15.513Z,0.00
2023-02-24T04:41:15.556Z,0.00
2023-02-24T04:42:15.634Z,0.00
2023-02-24T04:43:15.654Z,0.00
2023-02-24T04:44:15.683Z,0.00
2023-02-24T04:45:15.729Z,0.00
2023-02-24T04:46:15.793Z,0.00
2023-02-24T04:47:15.830Z,0.00
2023-02-24T04:48:15.908Z,0.00
2023-02-24T04:49:15.896Z,0.00
2023-02-24T04:50:15.949Z,0.00
2023-02-24T04:51:16.020Z,0.00
2023-02-24T04:52:16.032Z,0.00
2023-02-24T04:53:16.073Z,0.00
2023-02-24T04:54:16.123Z,0.00
2023-02-24T04:55:16.152Z,0.00
2023-02-24T04:56:16.235Z,0.00
2023-02-24T04:57:16.239Z,0.00
2023-02-24T04:58:16.288Z,0.00
2023-02-24T04:59:16.328Z,0.00
2023-02-24T05:00:16.402Z,0.00
2023-02-24T05:01:16.436Z,0.00
2023-02-24T05:02:19.634Z,0.00
2023-02-24T05:03:16.492Z,0.00
2023-02-24T05:04:16.566Z,0.00
2023-02-24T05:05:16.590Z,0.00
2023-02-24T05:06:16.639Z,0.00
2023-02-24T05:07:16.687Z,0.00
2023-02-24T05:08:16.714Z,0.00
2023-02-24T05:09:16.762Z,0.00
2023-02-24T05:10:16.816Z,0.00
2023-02-24T05:11:16.836Z,0.00
2023-02-24T05:12:16.934Z,0.00
2023-02-24T05:13:16.930Z,0.00
2023-02-24T05:14:17.013Z,0.00
2023-02-24T05:15:17.024Z,0.00
2023-02-24T05:16:17.136Z,0.00
2023-02-24T05:17:17.100Z,0.00
2023-02-24T05:18:17.293Z,0.00
2023-02-24T05:19:17.223Z,0.00
2023-02-24T05:20:17.248Z,0.00
2023-02-24T05:21:17.273Z,0.00
2023-02-24T05:22:17.309Z,0.00
2023-02-24T05:23:17.358Z,0.00
2023-02-24T05:24:17.442Z,0.00
2023-02-24T05:25:17.444Z,0.00
2023-02-24T05:26:18.051Z,0.00
2023-02-24T05:27:17.630Z,0.00
2023-02-24T05:28:17.565Z,0.00
2023-02-24T05:29:17.612Z,0.00
2023-02-24T05:30:17.653Z,0.00
2023-02-24T05:31:17.819Z,0.00
2023-02-24T05:32:17.826Z,0.00
2023-02-24T05:33:17.783Z,0.00
2023-02-24T05:34:17.848Z,0.00
2023-02-24T05:35:17.870Z,0.00
2023-02-24T05:36:17.913Z,0.00
2023-02-24T05:37:17.993Z,0.00
2023-02-24T05:38:18.000Z,0.00
2023-02-24T05:39:18.051Z,0.00
2023-02-24T05:40:18.098Z,0.00
2023-02-24T05:41:18.373Z,0.00
2023-02-24T05:42:18.192Z,0.00
2023-02-24T05:43:18.215Z,0.00
2023-02-24T05:44:18.242Z,0.00
2023-02-24T05:45:18.286Z,0.00
2023-02-24T05:46:18.394Z,0.00
2023-02-24T05:47:18.393Z,0.00
2023-02-24T05:48:18.418Z,0.00
2023-02-24T05:49:18.454Z,0.00
2023-02-24T05:50:18.517Z,0.00
2023-02-24T05:51:18.731Z,0.00
2023-02-24T05:52:18.620Z,0.00
2023-02-24T05:53:19.542Z,0.00
2023-02-24T05:54:18.683Z,0.00
2023-02-24T05:55:18.750Z,0.00
2023-02-24T05:56:18.770Z,0.00
2023-02-24T05:57:18.817Z,0.00
2023-02-24T05:58:18.848Z,0.00
2023-02-24T05:59:18.882Z,0.00
2023-02-24T06:00:18.931Z,0.00
2023-02-24T06:01:19.210Z,0.00
2023-02-24T06:02:19.090Z,0.00
2023-02-24T06:03:19.082Z,0.00
2023-02-24T06:04:19.112Z,0.00
2023-02-24T06:05:20.907Z,0.00
2023-02-24T06:06:19.190Z,0.00
2023-02-24T06:07:19.570Z,0.00
2023-02-24T06:08:19.275Z,0.00
2023-02-24T06:09:19.311Z,0.00
2023-02-24T06:10:19.370Z,0.00
2023-02-24T06:11:19.637Z,0.00
2023-02-24T06:12:19.475Z,0.00
2023-02-24T06:13:19.485Z,0.00
2023-02-24T06:14:19.534Z,5.63
2023-02-24T06:15:19.609Z,5.63
2023-02-24T06:16:19.685Z,5.63
2023-02-24T06:17:19.666Z,5.63
2023-02-24T06:18:20.580Z,5.63
2023-02-24T06:19:19.753Z,5.63
2023-02-24T06:20:19.813Z,5.63
2023-02-24T06:21:20.134Z,5.63
2023-02-24T06:22:19.871Z,11.25
2023-02-24T06:23:19.942Z,11.25
2023-02-24T06:24:19.958Z,11.25
2023-02-24T06:25:20.037Z,11.25
2023-02-24T06:26:20.069Z,11.25
2023-02-24T06:27:20.098Z,11.25
2023-02-24T06:28:20.132Z,11.25
2023-02-24T06:29:20.194Z,16.88
2023-02-24T06:30:20.338Z,16.88
2023-02-24T06:31:20.656Z,16.88
2023-02-24T06:32:20.473Z,16.88
2023-02-24T06:33:20.353Z,16.88
2023-02-24T06:34:20.384Z,16.88
2023-02-24T06:35:20.447Z,16.88
2023-02-24T06:36:20.474Z,16.88
2023-02-24T06:37:20.662Z,16.88
2023-02-24T06:38:20.591Z,16.88
2023-02-24T06:39:20.621Z,16.88
2023-02-24T06:40:20.649Z,22.50
2023-02-24T06:41:20.998Z,22.50
2023-02-24T06:42:20.735Z,22.50
2023-02-24T06:43:20.786Z,22.50
2023-02-24T06:44:20.848Z,22.50
2023-02-24T06:45:20.887Z,22.50
2023-02-24T06:46:20.975Z,22.50
2023-02-24T06:47:20.947Z,22.50
2023-02-24T06:48:20.997Z,22.50
2023-02-24T06:49:21.068Z,22.50
2023-02-24T06:50:21.087Z,28.13
2023-02-24T06:51:21.366Z,28.13
2023-02-24T06:52:21.176Z,28.13
2023-02-24T06:53:21.207Z,28.13
2023-02-24T06:54:21.260Z,28.13
2023-02-24T06:55:21.322Z,33.75
2023-02-24T06:56:21.353Z,33.75
2023-02-24T06:57:21.404Z,33.75
2023-02-24T06:58:21.432Z,39.38
2023-02-24T06:59:21.463Z,39.38
2023-02-24T07:00:21.520Z,45.00
2023-02-24T07:01:21.873Z,50.63
2023-02-24T07:02:21.625Z,50.63
2023-02-24T07:03:21.635Z,56.25
2023-02-24T07:04:21.731Z,61.88
2023-02-24T07:05:21.716Z,67.50
2023-02-24T07:06:21.773Z,67.50
2023-02-24T07:07:21.834Z,67.50
2023-02-24T07:08:21.857Z,67.50
2023-02-24T07:09:21.893Z,67.50
2023-02-24T07:10:22.007Z,67.50
2023-02-24T07:11:22.271Z,73.13
2023-02-24T07:12:22.052Z,73.13
2023-02-24T07:13:22.061Z,78.75
2023-02-24T07:14:22.118Z,90.00
2023-02-24T07:15:22.187Z,95.63
2023-02-24T07:16:22.253Z,106.88
2023-02-24T07:17:22.243Z,106.88
2023-02-24T07:18:22.293Z,112.50
2023-02-24T07:19:22.329Z,118.13
2023-02-24T07:20:22.391Z,118.13
2023-02-24T07:21:22.631Z,112.50
2023-02-24T07:22:22.448Z,112.50
2023-02-24T07:23:22.516Z,112.50
2023-02-24T07:24:22.577Z,112.50
2023-02-24T07:25:22.594Z,106.88
2023-02-24T07:26:22.626Z,118.13
2023-02-24T07:27:23.011Z,112.50
2023-02-24T07:28:22.712Z,112.50
2023-02-24T07:29:22.825Z,112.50
2023-02-24T07:30:22.863Z,118.13
2023-02-24T07:31:23.249Z,118.13
2023-02-24T07:32:23.158Z,118.13
2023-02-24T07:33:22.937Z,118.13
2023-02-24T07:34:23.001Z,118.13
2023-02-24T07:35:23.054Z,118.13
2023-02-24T07:36:23.067Z,118.13
2023-02-24T07:37:23.110Z,118.13
2023-02-24T07:38:23.157Z,118.13
2023-02-24T07:39:23.222Z,123.75
2023-02-24T07:40:23.256Z,123.75
2023-02-24T07:41:23.608Z,135.00
2023-02-24T07:42:23.313Z,151.88
2023-02-24T07:43:23.366Z,146.25
2023-02-24T07:44:23.406Z,151.88
2023-02-24T07:45:23.481Z,163.13
2023-02-24T07:46:23.540Z,174.38
2023-02-24T07:47:23.530Z,191.25
2023-02-24T07:48:23.581Z,174.38
2023-02-24T07:49:23.622Z,163.13
2023-02-24T07:50:23.698Z,168.75
2023-02-24T07:51:23.763Z,180.00
2023-02-24T07:52:23.764Z,174.38
2023-02-24T07:53:24.560Z,191.25
2023-02-24T07:54:23.873Z,236.25
2023-02-24T07:55:23.880Z,264.38
2023-02-24T07:56:23.931Z,258.75
2023-02-24T07:57:23.973Z,247.50
2023-02-24T07:58:24.062Z,286.88
2023-02-24T07:59:24.065Z,303.75
2023-02-24T08:00:24.118Z,365.63
2023-02-24T08:01:24.148Z,348.75
2023-02-24T08:02:24.268Z,433.13
2023-02-24T08:03:24.286Z,399.38
2023-02-24T08:04:24.292Z,483.75
2023-02-24T08:05:24.358Z,573.75
2023-02-24T08:06:24.415Z,320.63
2023-02-24T08:07:25.352Z,281.25
2023-02-24T08:08:24.475Z,376.88
2023-02-24T08:09:25.054Z,241.88
2023-02-24T08:10:24.681Z,365.63
2023-02-24T08:11:24.602Z,444.38
2023-02-24T08:12:24.680Z,562.50
2023-02-24T08:13:24.693Z,703.13
2023-02-24T08:14:24.762Z,703.13
2023-02-24T08:15:24.846Z,466.88
2023-02-24T08:16:24.835Z,466.88
2023-02-24T08:17:24.911Z,680.63
2023-02-24T08:18:24.928Z,714.38
2023-02-24T08:19:24.981Z,787.50
2023-02-24T08:20:25.017Z,798.75
2023-02-24T08:21:25.079Z,399.38
2023-02-24T08:22:25.135Z,466.88
2023-02-24T08:23:25.189Z,376.88
2023-02-24T08:24:25.488Z,360.00
2023-02-24T08:25:25.263Z,241.88
2023-02-24T08:26:25.363Z,225.00
2023-02-24T08:27:25.350Z,219.38
2023-02-24T08:28:25.415Z,225.00
2023-02-24T08:29:25.438Z,247.50
2023-02-24T08:30:25.672Z,376.88
2023-02-24T08:31:25.873Z,292.50
2023-02-24T08:32:25.645Z,450.00
2023-02-24T08:33:25.660Z,315.00
2023-02-24T08:34:25.683Z,275.63
2023-02-24T08:35:25.713Z,382.50
2023-02-24T08:36:25.754Z,258.75
2023-02-24T08:37:25.812Z,253.13
2023-02-24T08:38:26.613Z,292.50
2023-02-24T08:39:25.899Z,264.38
2023-02-24T08:40:25.939Z,253.13
2023-02-24T08:41:25.993Z,241.88
2023-02-24T08:42:26.036Z,236.25
2023-02-24T08:43:26.131Z,230.63
2023-02-24T08:44:26.125Z,241.88
2023-02-24T08:45:26.161Z,275.63
2023-02-24T08:46:26.692Z,298.13
2023-02-24T08:47:26.263Z,388.13
2023-02-24T08:48:26.378Z,365.63
2023-02-24T08:49:26.375Z,697.50
2023-02-24T08:50:26.512Z,551.25
2023-02-24T08:51:26.442Z,309.38
2023-02-24T08:52:26.499Z,298.13
2023-02-24T08:53:26.541Z,292.50
2023-02-24T08:54:26.666Z,298.13
2023-02-24T08:55:26.640Z,303.75
2023-02-24T08:56:26.781Z,309.38
2023-02-24T08:57:26.763Z,320.63
2023-02-24T08:58:26.836Z,315.00
2023-02-24T08:59:26.950Z,309.38
2023-02-24T09:00:27.071Z,286.88
2023-02-24T09:01:26.965Z,253.13
2023-02-24T09:02:27.069Z,247.50
2023-02-24T09:03:27.024Z,253.13
2023-02-24T09:04:27.171Z,264.38
2023-02-24T09:05:27.102Z,264.38
2023-02-24T09:06:27.158Z,286.88
2023-02-24T09:07:27.205Z,286.88
2023-02-24T09:08:27.254Z,315.00
2023-02-24T09:09:27.314Z,421.88
2023-02-24T09:10:27.364Z,365.63
2023-02-24T09:11:27.407Z,466.88
2023-02-24T09:12:27.471Z,354.38
2023-02-24T09:13:27.501Z,315.00
2023-02-24T09:14:28.778Z,309.38
2023-02-24T09:15:27.615Z,286.88
2023-02-24T09:16:28.639Z,275.63
2023-02-24T09:17:29.527Z,270.00
2023-02-24T09:18:27.725Z,298.13
2023-02-24T09:19:27.779Z,281.25
2023-02-24T09:20:27.835Z,478.13
2023-02-24T09:21:27.867Z,455.63
2023-02-24T09:22:27.938Z,427.50
2023-02-24T09:23:27.959Z,866.25
2023-02-24T09:24:28.765Z,826.88
2023-02-24T09:25:28.065Z,489.38
2023-02-24T09:26:28.079Z,433.13
2023-02-24T09:27:28.222Z,528.75
2023-02-24T09:28:28.217Z,618.75
2023-02-24T09:29:28.257Z,506.25
2023-02-24T09:30:28.309Z,405.00
2023-02-24T09:31:28.425Z,360.00
2023-02-24T09:32:28.550Z,337.50
2023-02-24T09:33:28.501Z,326.25
2023-02-24T09:34:28.475Z,320.63
2023-02-24T09:35:28.558Z,315.00
2023-02-24T09:36:28.571Z,298.13
2023-02-24T09:37:28.621Z,275.63
2023-02-24T09:38:29.584Z,258.75
2023-02-24T09:39:28.717Z,241.88
2023-02-24T09:40:28.787Z,236.25
2023-02-24T09:41:28.850Z,236.25
2023-02-24T09:42:28.852Z,247.50
2023-02-24T09:43:28.921Z,258.75
2023-02-24T09:44:28.985Z,275.63
2023-02-24T09:45:29.162Z,281.25
2023-02-24T09:46:29.160Z,298.13
2023-02-24T09:47:29.091Z,309.38
2023-02-24T09:48:29.155Z,320.63
2023-02-24T09:49:29.183Z,331.88
2023-02-24T09:50:59.070Z,348.75
2023-02-24T09:51:29.291Z,360.00
2023-02-24T09:52:29.344Z,354.38
2023-02-24T09:53:29.375Z,365.63
2023-02-24T09:54:29.433Z,371.25
2023-02-24T09:55:29.508Z,393.75
2023-02-24T09:56:29.537Z,405.00
2023-02-24T09:57:29.585Z,421.88
2023-02-24T09:58:42.805Z,444.38
2023-02-24T09:59:29.694Z,455.63
2023-02-24T10:00:29.727Z,461.25
2023-02-24T10:01:29.812Z,438.75
2023-02-24T10:02:29.885Z,427.50
2023-02-24T10:03:29.867Z,410.63
2023-02-24T10:04:29.961Z,376.88
2023-02-24T10:05:29.952Z,360.00
2023-02-24T10:06:30.015Z,360.00
2023-02-24T10:07:30.057Z,354.38
2023-02-24T10:08:30.110Z,354.38
2023-02-24T10:09:30.183Z,354.38
2023-02-24T10:10:30.208Z,354.38
2023-02-24T10:11:30.247Z,365.63
2023-02-24T10:12:30.310Z,388.13
2023-02-24T10:13:30.483Z,388.13
2023-02-24T10:14:42.684Z,376.88
2023-02-24T10:15:30.474Z,354.38
2023-02-24T10:16:30.508Z,343.13
2023-02-24T10:17:30.569Z,320.63
2023-02-24T10:18:30.622Z,315.00
2023-02-24T10:19:30.645Z,309.38
2023-02-24T10:20:30.719Z,303.75
2023-02-24T10:21:30.942Z,303.75
2023-02-24T10:22:30.797Z,298.13
2023-02-24T10:23:30.861Z,303.75
2023-02-24T10:24:30.873Z,303.75
2023-02-24T10:25:30.990Z,315.00
2023-02-24T10:26:30.969Z,320.63
2023-02-24T10:27:31.053Z,331.88
2023-02-24T10:28:31.068Z,326.25
2023-02-24T10:29:31.126Z,320.63
2023-02-24T10:30:31.252Z,315.00
2023-02-24T10:31:31.319Z,309.38
2023-02-24T10:32:31.321Z,303.75
2023-02-24T10:33:31.351Z,303.75
2023-02-24T10:34:31.354Z,298.13
2023-02-24T10:35:31.413Z,281.25
2023-02-24T10:36:31.455Z,270.00
2023-02-24T10:37:31.537Z,264.38
2023-02-24T10:38:31.552Z,264.38
2023-02-24T10:39:31.608Z,264.38
2023-02-24T10:40:31.671Z,270.00
2023-02-24T10:41:31.730Z,270.00
2023-02-24T10:42:31.866Z,275.63
2023-02-24T10:43:31.840Z,303.75
2023-02-24T10:44:31.852Z,337.50
2023-02-24T10:45:34.863Z,354.38
2023-02-24T10:46:40.551Z,376.88
2023-02-24T10:47:32.004Z,573.75
2023-02-24T10:48:41.434Z,613.13
2023-02-24T10:49:32.088Z,596.25
2023-02-24T10:50:32.526Z,585.00
2023-02-24T10:51:32.181Z,669.38
2023-02-24T10:52:32.231Z,478.13
2023-02-24T10:53:32.328Z,365.63
2023-02-24T10:54:32.327Z,360.00
2023-02-24T10:55:32.369Z,410.63
2023-02-24T10:56:32.424Z,590.63
2023-02-24T10:57:32.481Z,388.13
2023-02-24T10:58:32.554Z,315.00
2023-02-24T10:59:32.688Z,286.88
2023-02-24T11:00:32.630Z,298.13
2023-02-24T11:01:32.721Z,315.00
2023-02-24T11:02:32.895Z,360.00
2023-02-24T11:03:33.076Z,444.38
2023-02-24T11:04:32.825Z,444.38
2023-02-24T11:05:32.855Z,489.38
2023-02-24T11:06:32.920Z,478.13
2023-02-24T11:07:32.959Z,517.50
2023-02-24T11:08:33.066Z,483.75
2023-02-24T11:09:33.083Z,523.13
2023-02-24T11:10:33.172Z,421.88
2023-02-24T11:11:33.188Z,360.00
2023-02-24T11:12:33.216Z,405.00
2023-02-24T11:13:33.259Z,444.38
2023-02-24T11:14:33.317Z,450.00
2023-02-24T11:15:33.393Z,427.50
2023-02-24T11:16:33.438Z,416.25
2023-02-24T11:17:33.490Z,450.00
2023-02-24T11:18:33.538Z,450.00
2023-02-24T11:19:33.558Z,478.13
2023-02-24T11:20:46.505Z,523.13
2023-02-24T11:21:33.704Z,883.13
2023-02-24T11:22:33.702Z,466.88
2023-02-24T11:23:33.760Z,410.63
2023-02-24T11:24:33.870Z,382.50
2023-02-24T11:25:33.887Z,343.13
2023-02-24T11:26:33.916Z,348.75
2023-02-24T11:27:33.980Z,309.38
2023-02-24T11:28:34.033Z,286.88
2023-02-24T11:29:34.100Z,281.25
2023-02-24T11:30:34.233Z,275.63
2023-02-24T11:31:34.306Z,270.00
2023-02-24T11:32:34.326Z,270.00
2023-02-24T11:33:34.282Z,258.75
2023-02-24T11:34:34.300Z,253.13
2023-02-24T11:35:34.404Z,236.25
2023-02-24T11:36:34.426Z,236.25
2023-02-24T11:37:34.472Z,230.63
2023-02-24T11:38:34.529Z,219.38
2023-02-24T11:39:34.565Z,208.13
2023-02-24T11:40:34.642Z,191.25
2023-02-24T11:41:34.651Z,168.75
2023-02-24T11:42:34.705Z,157.50
2023-02-24T11:43:34.836Z,146.25
2023-02-24T11:44:34.843Z,146.25
2023-02-24T11:45:34.847Z,151.88
2023-02-24T11:46:34.952Z,157.50
2023-02-24T11:47:34.942Z,163.13
2023-02-24T11:48:35.018Z,168.75
2023-02-24T11:49:35.050Z,180.00
2023-02-24T11:50:35.142Z,196.88
2023-02-24T11:51:35.136Z,208.13
2023-02-24T11:52:35.189Z,213.75
2023-02-24T11:53:35.281Z,213.75
2023-02-24T11:54:35.352Z,213.75
2023-02-24T11:55:35.327Z,213.75
2023-02-24T11:56:35.438Z,219.38
2023-02-24T11:57:35.448Z,219.38
2023-02-24T11:58:35.588Z,225.00
2023-02-24T11:59:35.525Z,230.63
2023-02-24T12:00:35.574Z,241.88
2023-02-24T12:01:35.655Z,247.50
2023-02-24T12:02:35.814Z,247.50
2023-02-24T12:03:35.731Z,241.88
2023-02-24T12:04:35.775Z,241.88
2023-02-24T12:05:35.895Z,241.88
2023-02-24T12:06:35.932Z,241.88
2023-02-24T12:07:35.979Z,236.25
2023-02-24T12:08:35.990Z,225.00
2023-02-24T12:09:35.999Z,213.75
2023-02-24T12:10:36.083Z,202.50
2023-02-24T12:11:36.146Z,196.88
2023-02-24T12:12:36.150Z,196.88
2023-02-24T12:13:36.194Z,191.25
2023-02-24T12:14:36.247Z,196.88
2023-02-24T12:15:36.307Z,191.25
2023-02-24T12:16:36.459Z,196.88
2023-02-24T12:17:36.394Z,191.25
2023-02-24T12:18:36.468Z,191.25
2023-02-24T12:19:36.489Z,185.63
2023-02-24T12:20:36.531Z,191.25
2023-02-24T12:21:36.607Z,185.63
2023-02-24T12:22:36.626Z,185.63
2023-02-24T12:23:36.716Z,185.63
2023-02-24T12:24:36.734Z,185.63
2023-02-24T12:25:36.773Z,185.63
2023-02-24T12:26:36.819Z,185.63
2023-02-24T12:27:36.878Z,185.63
2023-02-24T12:28:36.943Z,185.63
2023-02-24T12:29:36.992Z,180.00
2023-02-24T12:30:38.909Z,180.00
2023-02-24T12:31:37.106Z,185.63
2023-02-24T12:32:37.899Z,196.88
2023-02-24T12:33:37.162Z,196.88
2023-02-24T12:34:37.238Z,202.50
2023-02-24T12:35:37.294Z,202.50
2023-02-24T12:36:37.301Z,208.13
2023-02-24T12:37:37.374Z,208.13
2023-02-24T12:38:37.423Z,208.13
2023-02-24T12:39:37.449Z,213.75
2023-02-24T12:40:37.573Z,213.75
2023-02-24T12:41:37.566Z,219.38
2023-02-24T12:42:37.580Z,236.25
2023-02-24T12:43:37.679Z,253.13
2023-02-24T12:44:37.700Z,264.38
2023-02-24T12:45:37.737Z,275.63
2023-02-24T12:46:37.810Z,281.25
2023-02-24T12:47:37.828Z,286.88
2023-02-24T12:48:37.923Z,298.13
2023-02-24T12:49:37.935Z,309.38
2023-02-24T12:50:37.980Z,337.50
2023-02-24T12:51:38.047Z,354.38
2023-02-24T12:52:38.077Z,354.38
2023-02-24T12:53:38.134Z,348.75
2023-02-24T12:54:38.173Z,326.25
2023-02-24T12:55:38.246Z,326.25
2023-02-24T12:56:38.273Z,298.13
2023-02-24T12:57:38.311Z,292.50
2023-02-24T12:58:38.414Z,286.88
2023-02-24T12:59:38.408Z,281.25
2023-02-24T13:00:38.499Z,264.38
2023-02-24T13:01:38.575Z,253.13
2023-02-24T13:02:38.670Z,253.13
2023-02-24T13:03:38.594Z,247.50
2023-02-24T13:04:38.652Z,247.50
2023-02-24T13:05:38.723Z,253.13
2023-02-24T13:06:38.747Z,258.75
2023-02-24T13:07:38.818Z,258.75
2023-02-24T13:08:38.852Z,253.13
2023-02-24T13:09:38.888Z,241.88
2023-02-24T13:10:38.968Z,230.63
2023-02-24T13:11:38.984Z,230.63